createdAt,value
2018-01-13T00:02:23.509Z,24.92
2018-01-13T00:04:53.884Z,29.10
2018-01-13T00:07:22.427Z,30.40
2018-01-13T00:09:51.008Z,29.08
2018-01-13T00:12:19.441Z,31.27
2018-01-13T00:14:47.823Z,28.08
2018-01-13T00:17:17.073Z,30.65
2018-01-13T00:19:45.831Z,27.75
2018-01-13T00:22:14.297Z,30.33
2018-01-13T00:24:42.696Z,30.85
2018-01-13T00:27:11.536Z,32.00
2018-01-13T00:29:41.414Z,31.70
2018-01-13T00:32:10.195Z,31.67
2018-01-13T00:34:38.593Z,31.30
2018-01-13T00:37:07.111Z,31.62
2018-01-13T00:39:36.325Z,29.45
2018-01-13T00:42:05.134Z,36.83
2018-01-13T00:44:33.708Z,28.12
2018-01-13T00:47:02.202Z,31.12
2018-01-13T00:49:31.004Z,30.98
2018-01-13T00:51:59.641Z,27.58
2018-01-13T00:54:28.084Z,37.90
2018-01-13T00:56:57.244Z,30.73
2018-01-13T00:59:26.137Z,32.20
2018-01-13T01:01:54.648Z,27.60
2018-01-13T01:04:23.021Z,35.20
2018-01-13T01:06:51.436Z,30.97
2018-01-13T01:09:19.825Z,27.13
2018-01-13T01:11:48.563Z,30.17
2018-01-13T01:14:16.912Z,29.60
2018-01-13T01:16:45.319Z,28.10
2018-01-13T01:19:14.112Z,29.15
2018-01-13T01:21:42.921Z,29.80
2018-01-13T01:24:11.253Z,32.00
2018-01-13T01:26:39.653Z,30.03
2018-01-13T01:29:08.089Z,32.53
2018-01-13T01:31:37.341Z,30.43
2018-01-13T01:34:06.017Z,28.97
2018-01-13T01:36:34.492Z,35.07
2018-01-13T01:39:03.249Z,32.03
2018-01-13T01:41:32.026Z,30.13
2018-01-13T01:44:01.126Z,26.13
2018-01-13T01:46:29.475Z,28.40
2018-01-13T01:48:59.333Z,28.70
2018-01-13T01:51:27.734Z,28.73
2018-01-13T01:53:56.393Z,30.93
2018-01-13T01:56:24.788Z,32.17
2018-01-13T01:58:53.352Z,31.87
2018-01-13T02:01:21.768Z,33.97
2018-01-13T02:03:50.124Z,37.30
2018-01-13T02:06:18.918Z,37.83
2018-01-13T02:08:47.360Z,33.13
2018-01-13T02:11:16.612Z,36.25
2018-01-13T02:13:45.053Z,36.10
2018-01-13T02:16:13.582Z,31.70
2018-01-13T02:18:41.917Z,30.77
2018-01-13T02:21:10.279Z,32.95
2018-01-13T02:23:39.833Z,34.87
2018-01-13T02:26:08.281Z,33.67
2018-01-13T02:28:36.669Z,34.03
2018-01-13T02:31:05.226Z,33.67
2018-01-13T02:33:34.271Z,34.93
2018-01-13T02:36:02.577Z,31.60
2018-01-13T02:38:30.883Z,32.50
2018-01-13T02:40:59.953Z,33.30
2018-01-13T02:43:28.763Z,30.63
2018-01-13T02:45:57.821Z,30.70
2018-01-13T02:48:26.669Z,37.37
2018-01-13T02:50:55.377Z,30.40
2018-01-13T02:53:23.676Z,30.35
2018-01-13T02:55:51.970Z,28.10
2018-01-13T02:58:20.417Z,32.70
2018-01-13T03:00:48.898Z,30.50
2018-01-13T03:03:17.270Z,32.10
2018-01-13T03:05:45.802Z,30.10
2018-01-13T03:08:14.144Z,29.60
2018-01-13T03:10:42.596Z,34.72
2018-01-13T03:13:11.488Z,30.30
2018-01-13T03:15:40.093Z,33.20
2018-01-13T03:18:09.234Z,32.20
2018-01-13T03:20:37.584Z,31.45
2018-01-13T03:23:06.249Z,35.55
2018-01-13T03:25:34.968Z,30.63
2018-01-13T03:28:03.440Z,31.43
2018-01-13T03:30:31.827Z,31.85
2018-01-13T03:33:00.401Z,27.98
2018-01-13T03:35:29.566Z,31.03
2018-01-13T03:37:58.566Z,42.40
2018-01-13T03:40:26.940Z,28.92
2018-01-13T03:42:55.234Z,30.65
2018-01-13T03:45:23.694Z,31.83
2018-01-13T03:47:52.596Z,31.40
2018-01-13T03:50:20.958Z,30.15
2018-01-13T03:52:49.614Z,31.57
2018-01-13T03:55:18.876Z,32.00
2018-01-13T03:57:47.613Z,33.85
2018-01-13T04:00:16.917Z,35.80
2018-01-13T04:02:46.262Z,37.83
2018-01-13T04:05:14.710Z,35.17
2018-01-13T04:07:43.029Z,32.20
2018-01-13T04:10:11.641Z,36.95
2018-01-13T04:12:40.196Z,36.00
2018-01-13T04:15:09.660Z,43.83
2018-01-13T04:17:38.588Z,37.20
2018-01-13T04:20:06.968Z,34.50
2018-01-13T04:22:35.254Z,38.03
2018-01-13T04:25:03.983Z,40.50
2018-01-13T04:27:33.230Z,39.67
2018-01-13T04:30:01.536Z,39.27
2018-01-13T04:32:30.183Z,35.57
2018-01-13T04:34:58.725Z,44.38
2018-01-13T04:37:27.887Z,41.80
2018-01-13T04:39:56.628Z,40.20
2018-01-13T04:42:25.296Z,38.90
2018-01-13T04:44:54.342Z,40.78
2018-01-13T04:47:23.047Z,43.28
2018-01-13T04:49:51.715Z,40.10
2018-01-13T04:52:20.065Z,41.00
2018-01-13T04:54:48.741Z,37.47
2018-01-13T04:57:17.314Z,34.20
2018-01-13T04:59:46.141Z,41.28
2018-01-13T05:02:15.291Z,42.20
2018-01-13T05:04:43.952Z,36.70
2018-01-13T05:07:12.418Z,40.10
2018-01-13T05:09:40.796Z,44.17
2018-01-13T05:12:09.793Z,37.53
2018-01-13T05:14:38.793Z,42.13
2018-01-13T05:17:07.556Z,38.78
2018-01-13T05:19:36.037Z,37.85
2018-01-13T05:22:04.908Z,46.10
2018-01-13T05:24:33.417Z,37.80
2018-01-13T05:27:02.541Z,40.95
2018-01-13T05:29:31.391Z,38.10
2018-01-13T05:31:59.776Z,39.38
2018-01-13T05:34:28.873Z,38.38
2018-01-13T05:36:57.247Z,44.38
2018-01-13T05:39:25.541Z,43.73
2018-01-13T05:41:54.501Z,37.75
2018-01-13T05:44:23.323Z,38.72
2018-01-13T05:46:52.254Z,44.35
2018-01-13T05:49:20.553Z,39.78
2018-01-13T05:51:49.081Z,35.08
2018-01-13T05:54:17.373Z,41.88
2018-01-13T05:56:45.936Z,40.73
2018-01-13T05:59:14.277Z,37.75
2018-01-13T06:01:43.745Z,45.83
2018-01-13T06:04:12.136Z,42.67
2018-01-13T06:06:42.032Z,45.37
2018-01-13T06:09:10.791Z,43.70
2018-01-13T06:11:40.383Z,49.37
2018-01-13T06:14:08.824Z,47.00
2018-01-13T06:16:37.207Z,50.30
2018-01-13T06:19:05.938Z,42.00
2018-01-13T06:21:34.439Z,43.90
2018-01-13T06:24:02.871Z,42.30
2018-01-13T06:26:32.610Z,49.22
2018-01-13T06:29:00.929Z,46.75
2018-01-13T06:31:29.224Z,49.57
2018-01-13T06:33:57.576Z,47.00
2018-01-13T06:36:25.921Z,55.33
2018-01-13T06:38:54.233Z,52.55
2018-01-13T06:41:22.871Z,57.03
2018-01-13T06:43:51.414Z,52.73
2018-01-13T06:46:20.075Z,57.77
2018-01-13T06:48:49.241Z,55.97
2018-01-13T06:51:18.033Z,46.60
2018-01-13T06:53:46.525Z,52.03
2018-01-13T06:56:15.017Z,53.92
2018-01-13T06:58:43.497Z,56.67
2018-01-13T07:01:13.473Z,52.30
2018-01-13T07:03:42.734Z,49.90
2018-01-13T07:06:11.076Z,51.53
2018-01-13T07:08:39.385Z,56.55
2018-01-13T07:11:07.842Z,49.90
2018-01-13T07:13:36.131Z,55.65
2018-01-13T07:16:04.913Z,52.70
2018-01-13T07:18:33.481Z,53.33
2018-01-13T07:21:01.789Z,58.72
2018-01-13T07:23:30.287Z,50.95
2018-01-13T07:25:58.972Z,53.83
2018-01-13T07:28:27.679Z,57.13
2018-01-13T07:30:57.291Z,54.35
2018-01-13T07:33:26.641Z,57.67
2018-01-13T07:35:55.136Z,55.38
2018-01-13T07:38:23.613Z,53.33
2018-01-13T07:40:52.521Z,52.80
2018-01-13T07:43:21.609Z,50.37
2018-01-13T07:45:50.078Z,50.05
2018-01-13T07:48:18.429Z,52.08
2018-01-13T07:50:46.823Z,51.25
2018-01-13T07:53:15.122Z,49.53
2018-01-13T07:55:43.452Z,55.38
2018-01-13T07:58:11.757Z,51.92
2018-01-13T08:00:40.457Z,53.70
2018-01-13T08:03:08.811Z,53.00
2018-01-13T08:05:37.502Z,52.30
2018-01-13T08:08:05.950Z,54.90
2018-01-13T08:10:35.449Z,54.05
2018-01-13T08:13:04.517Z,44.53
2018-01-13T08:15:33.269Z,52.15
2018-01-13T08:18:01.629Z,57.42
2018-01-13T08:20:30.097Z,45.97
2018-01-13T08:22:59.496Z,62.92
2018-01-13T08:25:28.596Z,60.70
2018-01-13T08:27:58.260Z,53.92
2018-01-13T08:30:26.827Z,56.20
2018-01-13T08:32:55.348Z,54.78
2018-01-13T08:35:23.643Z,56.78
2018-01-13T08:37:52.717Z,60.33
2018-01-13T08:40:21.065Z,55.10
2018-01-13T08:42:49.744Z,54.30
2018-01-13T08:45:18.240Z,51.95
2018-01-13T08:47:46.602Z,50.78
2018-01-13T08:50:15.020Z,57.13
2018-01-13T08:52:43.739Z,51.08
2018-01-13T08:55:12.236Z,54.00
2018-01-13T08:57:40.747Z,50.67
2018-01-13T09:00:10.038Z,50.25
2018-01-13T09:02:38.849Z,53.67
2018-01-13T09:05:07.565Z,59.05
2018-01-13T09:07:35.993Z,55.12
2018-01-13T09:10:04.703Z,48.75
2018-01-13T09:12:33.854Z,52.05
2018-01-13T09:15:02.249Z,46.33
2018-01-13T09:17:30.905Z,49.60
2018-01-13T09:20:00.124Z,57.10
2018-01-13T09:22:28.445Z,52.70
2018-01-13T09:24:57.404Z,50.47
2018-01-13T09:27:25.712Z,48.67
2018-01-13T09:29:54.139Z,52.03
2018-01-13T09:32:22.898Z,46.33
2018-01-13T09:34:51.223Z,55.72
2018-01-13T09:37:19.755Z,48.70
2018-01-13T09:39:48.340Z,49.05
2018-01-13T09:42:18.254Z,44.53
2018-01-13T09:44:46.941Z,48.07
2018-01-13T09:47:15.293Z,50.70
2018-01-13T09:49:44.293Z,49.90
2018-01-13T09:52:13.014Z,42.62
2018-01-13T09:54:41.726Z,53.10
2018-01-13T09:57:11.643Z,43.47
2018-01-13T09:59:40.368Z,45.50
2018-01-13T10:02:08.771Z,52.93
2018-01-13T10:04:37.258Z,54.78
2018-01-13T10:07:05.738Z,50.63
2018-01-13T10:09:35.776Z,52.05
2018-01-13T10:12:05.388Z,47.00
2018-01-13T10:14:33.821Z,49.97
2018-01-13T10:17:02.173Z,45.00
2018-01-13T10:19:32.039Z,49.33
2018-01-13T10:22:00.477Z,43.72
2018-01-13T10:24:28.890Z,50.90
2018-01-13T10:26:57.346Z,51.55
2018-01-13T10:29:25.856Z,47.33
2018-01-13T10:31:55.601Z,48.55
2018-01-13T10:34:24.675Z,46.45
2018-01-13T10:36:53.763Z,48.10
2018-01-13T10:39:22.422Z,49.45
2018-01-13T10:41:50.805Z,46.58
2018-01-13T10:44:19.210Z,52.78
2018-01-13T10:46:47.941Z,52.83
2018-01-13T10:49:16.410Z,53.85
2018-01-13T10:51:44.744Z,51.85
2018-01-13T10:54:13.236Z,48.10
2018-01-13T10:56:41.998Z,47.20
2018-01-13T10:59:10.420Z,48.42
2018-01-13T11:01:38.952Z,48.25
2018-01-13T11:04:07.306Z,48.80
2018-01-13T11:06:36.272Z,51.80
2018-01-13T11:09:06.047Z,42.40
2018-01-13T11:11:35.148Z,49.47
2018-01-13T11:14:04.344Z,48.93
2018-01-13T11:16:33.208Z,48.97
2018-01-13T11:19:01.712Z,53.08
2018-01-13T11:21:30.105Z,50.83
2018-01-13T11:23:59.963Z,54.30
2018-01-13T11:26:29.069Z,49.37
2018-01-13T11:28:57.413Z,52.22
2018-01-13T11:31:26.529Z,54.67
2018-01-13T11:33:55.728Z,51.45
2018-01-13T11:36:24.857Z,51.67
2018-01-13T11:38:53.271Z,57.72
2018-01-13T11:41:23.639Z,52.45
2018-01-13T11:43:52.017Z,61.10
2018-01-13T11:46:20.670Z,55.58
2018-01-13T11:48:49.786Z,52.53
2018-01-13T11:51:19.144Z,56.95
2018-01-13T11:53:47.514Z,51.88
2018-01-13T11:56:16.249Z,54.92
2018-01-13T11:58:44.586Z,55.33
2018-01-13T12:01:13.051Z,55.38
2018-01-13T12:03:41.390Z,48.78
2018-01-13T12:06:10.640Z,51.17
2018-01-13T12:08:39.673Z,57.47
2018-01-13T12:11:08.190Z,52.80
2018-01-13T12:13:36.682Z,54.33
2018-01-13T12:16:05.146Z,56.03
2018-01-13T12:18:33.509Z,60.17
2018-01-13T12:21:03.126Z,51.37
2018-01-13T12:23:31.429Z,54.33
2018-01-13T12:26:00.032Z,53.35
2018-01-13T12:28:28.490Z,49.60
2018-01-13T12:30:56.821Z,51.30
2018-01-13T12:33:25.205Z,50.17
2018-01-13T12:35:53.765Z,56.83
2018-01-13T12:38:22.321Z,53.38
2018-01-13T12:40:51.738Z,55.58
2018-01-13T12:43:20.793Z,55.45
2018-01-13T12:45:49.332Z,50.63
2018-01-13T12:48:17.682Z,60.70
2018-01-13T12:50:46.282Z,51.37
2018-01-13T12:53:15.006Z,51.58
2018-01-13T12:55:44.110Z,58.00
2018-01-13T12:58:13.479Z,53.55
2018-01-13T13:00:43.180Z,59.90
2018-01-13T13:03:11.641Z,59.10
2018-01-13T13:05:40.149Z,53.20
2018-01-13T13:08:08.481Z,50.40
2018-01-13T13:10:37.132Z,56.00
2018-01-13T13:13:05.705Z,60.72
2018-01-13T13:15:34.076Z,48.13
2018-01-13T13:18:03.294Z,51.95
2018-01-13T13:20:31.658Z,49.25
2018-01-13T13:23:00.310Z,49.35
2018-01-13T13:25:28.692Z,49.10
2018-01-13T13:27:56.993Z,51.00
2018-01-13T13:30:25.522Z,50.38
2018-01-13T13:32:54.741Z,50.92
2018-01-13T13:35:23.178Z,46.70
2018-01-13T13:37:52.291Z,46.65
2018-01-13T13:40:21.575Z,47.72
2018-01-13T13:42:50.411Z,47.85
2018-01-13T13:45:18.725Z,45.65
2018-01-13T13:47:47.307Z,47.88
2018-01-13T13:50:15.644Z,49.42
2018-01-13T13:52:44.941Z,49.13
2018-01-13T13:55:13.344Z,42.78
2018-01-13T13:57:41.644Z,44.22
2018-01-13T14:00:10.380Z,45.15
2018-01-13T14:02:39.725Z,43.63
2018-01-13T14:05:08.082Z,48.03
2018-01-13T14:07:37.434Z,46.55
2018-01-13T14:10:06.124Z,44.95
2018-01-13T14:12:34.490Z,45.85
2018-01-13T14:15:03.179Z,41.30
2018-01-13T14:17:31.860Z,42.58
2018-01-13T14:20:02.081Z,39.10
2018-01-13T14:22:30.411Z,38.80
2018-01-13T14:24:58.764Z,43.43
2018-01-13T14:27:27.269Z,36.00
2018-01-13T14:29:56.393Z,38.47
2018-01-13T14:32:24.738Z,38.75
2018-01-13T14:34:54.070Z,39.57
2018-01-13T14:37:22.533Z,41.90
2018-01-13T14:39:50.833Z,37.92
2018-01-13T14:42:19.588Z,38.75
2018-01-13T14:44:48.629Z,32.63
2018-01-13T14:47:17.365Z,34.03
2018-01-13T14:49:46.573Z,34.25
2018-01-13T14:52:15.797Z,35.50
2018-01-13T14:54:44.191Z,32.35
2018-01-13T14:57:12.982Z,34.55
2018-01-13T14:59:41.886Z,33.70
2018-01-13T15:02:10.375Z,30.80
2018-01-13T15:04:38.746Z,30.33
2018-01-13T15:07:07.314Z,36.35
2018-01-13T15:09:35.793Z,29.65
2018-01-13T15:12:04.297Z,30.85
2018-01-13T15:14:32.686Z,26.62
2018-01-13T15:17:01.141Z,28.10
2018-01-13T15:19:29.629Z,26.08
2018-01-13T15:21:58.265Z,29.30
2018-01-13T15:24:26.964Z,28.02
2018-01-13T15:26:55.422Z,29.95
2018-01-13T15:29:24.561Z,28.98
2018-01-13T15:31:52.909Z,31.52
2018-01-13T15:34:21.375Z,25.52
2018-01-13T15:36:50.548Z,34.83
2018-01-13T15:39:20.428Z,33.83
2018-01-13T15:41:48.889Z,27.75
2018-01-13T15:44:17.299Z,23.92
2018-01-13T15:46:45.773Z,25.52
2018-01-13T15:49:14.274Z,24.75
2018-01-13T15:51:42.699Z,25.33
2018-01-13T15:54:12.174Z,23.73
2018-01-13T15:56:40.593Z,25.10
2018-01-13T15:59:09.148Z,21.67
2018-01-13T16:01:38.285Z,21.92
2018-01-13T16:04:07.101Z,23.92
2018-01-13T16:06:35.384Z,21.77
2018-01-13T16:09:04.940Z,21.42
2018-01-13T16:11:33.401Z,22.13
2018-01-13T16:14:01.764Z,20.48
2018-01-13T16:16:30.604Z,22.05
2018-01-13T16:18:59.257Z,20.00
2018-01-13T16:21:27.570Z,21.77
2018-01-13T16:23:56.974Z,22.95
2018-01-13T16:26:26.185Z,19.15
2018-01-13T16:28:54.606Z,21.15
2018-01-13T16:31:22.965Z,21.05
2018-01-13T16:33:51.438Z,23.25
2018-01-13T16:36:20.237Z,22.75
2018-01-13T16:38:48.737Z,21.12
2018-01-13T16:41:17.124Z,21.42
2018-01-13T16:43:45.492Z,25.70
2018-01-13T16:46:15.384Z,23.48
2018-01-13T16:48:43.868Z,22.02
2018-01-13T16:51:12.570Z,22.13
2018-01-13T16:53:41.398Z,21.08
2018-01-13T16:56:10.564Z,21.15
2018-01-13T16:58:38.987Z,21.00
2018-01-13T17:01:07.381Z,22.33
2018-01-13T17:03:35.937Z,24.08
2018-01-13T17:06:04.285Z,20.95
2018-01-13T17:08:33.142Z,18.33
2018-01-13T17:11:01.561Z,19.40
2018-01-13T17:13:29.926Z,19.20
2018-01-13T17:15:58.321Z,18.95
2018-01-13T17:18:26.734Z,22.55
2018-01-13T17:20:55.977Z,23.45
2018-01-13T17:23:24.714Z,22.33
2018-01-13T17:25:53.965Z,20.02
2018-01-13T17:28:22.407Z,19.33
2018-01-13T17:30:50.934Z,19.98
2018-01-13T17:33:20.149Z,22.00
2018-01-13T17:35:50.154Z,21.20
2018-01-13T17:38:18.870Z,23.98
2018-01-13T17:40:47.966Z,21.50
2018-01-13T17:43:17.034Z,22.50
2018-01-13T17:45:45.503Z,25.73
2018-01-13T17:48:14.152Z,21.65
2018-01-13T17:50:42.693Z,20.27
2018-01-13T17:53:11.079Z,18.17
2018-01-13T17:55:40.233Z,19.42
2018-01-13T17:58:08.753Z,18.80
2018-01-13T18:00:39.189Z,21.20
2018-01-13T18:03:08.489Z,20.48
2018-01-13T18:05:36.900Z,24.40
2018-01-13T18:08:05.418Z,19.83
2018-01-13T18:10:33.953Z,20.02
2018-01-13T18:13:02.481Z,19.48
2018-01-13T18:15:30.825Z,18.48
2018-01-13T18:17:59.349Z,14.87
2018-01-13T18:20:28.457Z,20.23
2018-01-13T18:22:56.865Z,20.05
2018-01-13T18:25:26.405Z,20.55
2018-01-13T18:27:54.781Z,18.45
2018-01-13T18:30:23.089Z,22.23
2018-01-13T18:32:51.877Z,22.98
2018-01-13T18:35:20.395Z,20.88
2018-01-13T18:37:53.127Z,18.00
2018-01-13T18:40:21.953Z,23.38
2018-01-13T18:42:51.185Z,20.42
2018-01-13T18:45:20.242Z,19.70
2018-01-13T18:47:50.209Z,23.48
2018-01-13T18:50:18.647Z,19.65
2018-01-13T18:52:48.844Z,18.10
2018-01-13T18:55:17.218Z,20.90
2018-01-13T18:57:45.865Z,20.05
2018-01-13T19:00:14.385Z,22.83
2018-01-13T19:02:43.108Z,20.52
2018-01-13T19:05:11.509Z,21.25
2018-01-13T19:07:40.020Z,20.23
2018-01-13T19:10:08.439Z,19.10
2018-01-13T19:12:38.442Z,21.20
2018-01-13T19:15:06.912Z,19.83
2018-01-13T19:17:35.282Z,19.75
2018-01-13T19:20:03.721Z,20.27
2018-01-13T19:22:32.137Z,19.25
2018-01-13T19:25:01.352Z,20.67
2018-01-13T19:27:30.674Z,19.73
2018-01-13T19:29:59.047Z,20.83
2018-01-13T19:32:28.464Z,17.77
2018-01-13T19:34:56.800Z,19.45
2018-01-13T19:37:25.529Z,21.20
2018-01-13T19:39:53.876Z,20.62
2018-01-13T19:42:22.650Z,20.23
2018-01-13T19:44:50.973Z,17.10
2018-01-13T19:47:19.297Z,19.05
2018-01-13T19:49:49.446Z,19.27
2018-01-13T19:52:17.757Z,22.60
2018-01-13T19:54:46.117Z,18.30
2018-01-13T19:57:14.650Z,17.92
2018-01-13T19:59:42.992Z,18.77
2018-01-13T20:02:11.581Z,17.70
2018-01-13T20:04:40.305Z,17.75
2018-01-13T20:07:09.838Z,18.30
2018-01-13T20:09:38.172Z,17.25
2018-01-13T20:12:06.611Z,16.58
2018-01-13T20:14:35.186Z,17.27
2018-01-13T20:17:03.662Z,18.65
2018-01-13T20:19:32.009Z,16.83
2018-01-13T20:22:00.919Z,20.48
2018-01-13T20:24:29.517Z,18.58
2018-01-13T20:26:57.824Z,18.95
2018-01-13T20:29:26.277Z,17.45
2018-01-13T20:31:54.625Z,18.05
2018-01-13T20:34:23.945Z,16.02
2018-01-13T20:36:52.273Z,18.23
2018-01-13T20:39:20.724Z,17.23
2018-01-13T20:41:49.076Z,18.00
2018-01-13T20:44:17.585Z,18.25
2018-01-13T20:46:46.226Z,18.20
2018-01-13T20:49:14.613Z,17.65
2018-01-13T20:51:43.453Z,18.15
2018-01-13T20:54:11.887Z,18.08
2018-01-13T20:56:40.521Z,16.05
2018-01-13T20:59:09.463Z,16.95
2018-01-13T21:01:38.036Z,17.42
2018-01-13T21:04:07.146Z,16.23
2018-01-13T21:06:37.969Z,16.70
2018-01-13T21:09:06.298Z,17.50
2018-01-13T21:11:34.745Z,18.87
2018-01-13T21:14:03.461Z,19.10
2018-01-13T21:16:32.017Z,16.50
2018-01-13T21:19:01.544Z,25.10
2018-01-13T21:21:30.838Z,17.98
2018-01-13T21:24:02.131Z,14.68
2018-01-13T21:26:30.465Z,14.45
2018-01-13T21:28:59.358Z,16.77
2018-01-13T21:31:28.051Z,14.45
2018-01-13T21:33:56.604Z,13.38
2018-01-13T21:36:25.113Z,15.10
2018-01-13T21:38:53.418Z,14.48
2018-01-13T21:41:21.861Z,13.48
2018-01-13T21:43:50.300Z,11.82
2018-01-13T21:46:19.277Z,12.57
2018-01-13T21:48:47.653Z,13.88
2018-01-13T21:51:16.933Z,14.90
2018-01-13T21:53:45.520Z,14.10
2018-01-13T21:56:14.461Z,14.73
2018-01-13T21:58:43.557Z,13.75
2018-01-13T22:01:12.684Z,12.75
2018-01-13T22:03:41.073Z,13.77
2018-01-13T22:06:09.661Z,12.37
2018-01-13T22:08:38.865Z,12.85
2018-01-13T22:11:07.245Z,11.77
2018-01-13T22:13:35.877Z,12.37
2018-01-13T22:16:04.962Z,14.07
2018-01-13T22:18:34.193Z,12.15
2018-01-13T22:21:02.566Z,11.05
2018-01-13T22:23:30.937Z,12.32
2018-01-13T22:25:59.252Z,10.60
2018-01-13T22:28:27.598Z,13.05
2018-01-13T22:30:56.135Z,12.73
2018-01-13T22:33:24.419Z,12.65
2018-01-13T22:35:53.044Z,13.27
2018-01-13T22:38:22.661Z,12.07
2018-01-13T22:40:51.011Z,13.75
2018-01-13T22:43:20.189Z,12.05
2018-01-13T22:45:48.517Z,12.98
2018-01-13T22:48:16.869Z,12.10
2018-01-13T22:50:45.489Z,12.32
2018-01-13T22:53:13.956Z,14.30
2018-01-13T22:55:42.483Z,11.27
2018-01-13T22:58:11.236Z,12.02
2018-01-13T23:00:44.307Z,11.48
2018-01-13T23:03:13.469Z,12.15
2018-01-13T23:05:41.832Z,10.70
2018-01-13T23:08:10.264Z,12.90
2018-01-13T23:10:38.613Z,12.80
2018-01-13T23:13:09.378Z,13.57
2018-01-13T23:15:37.938Z,12.00
2018-01-13T23:18:07.573Z,11.45
2018-01-13T23:20:36.929Z,13.00
2018-01-13T23:23:05.622Z,9.95
2018-01-13T23:25:34.089Z,10.68
2018-01-13T23:28:02.610Z,10.48
2018-01-13T23:30:31.688Z,11.30
2018-01-13T23:33:00.132Z,11.07
2018-01-13T23:35:29.034Z,10.90
2018-01-13T23:37:58.323Z,10.77
2018-01-13T23:40:26.796Z,11.02
2018-01-13T23:42:55.173Z,12.57
2018-01-13T23:45:23.871Z,10.15
2018-01-13T23:47:52.826Z,10.55
2018-01-13T23:50:22.272Z,12.00
2018-01-13T23:52:50.617Z,12.93
2018-01-13T23:55:18.961Z,12.05
2018-01-13T23:57:48.360Z,9.90
